Time;durP1;ratioP1;P1;durP2;ratioP2;P2;SDS_P1;SDS_P2;PMS_P1;PMS_P2;Temp;Humidity;BMP_temperature;BMP_pressure;BME280_temperature;BME280_humidity;BME280_pressure;Samples;Min_cycle;Max_cycle;Signal;HPM_P1;HPM_P2
2022/05/12 00:00:16;;;;;;;4.45;3.55;;;14.10;99.90;;;;;;6040136;23;20030;-83
2022/05/12 00:02:44;;;;;;;4.32;3.92;;;13.90;99.90;;;;;;6064204;23;20482;-83
2022/05/12 00:05:14;;;;;;;3.85;3.55;;;13.90;99.90;;;;;;6068122;23;20139;-82
2022/05/12 00:07:43;;;;;;;5.30;4.05;;;14.10;99.90;;;;;;6074518;23;20022;-84
2022/05/12 00:10:14;;;;;;;3.83;3.50;;;14.20;99.90;;;;;;6086493;23;20031;-84
2022/05/12 00:12:43;;;;;;;4.30;3.47;;;14.50;99.90;;;;;;6071035;23;20031;-82
2022/05/12 00:15:14;;;;;;;4.75;4.20;;;14.90;99.90;;;;;;6063255;23;20027;-82
2022/05/12 00:17:44;;;;;;;3.10;2.35;;;15.20;99.90;;;;;;6038667;23;20031;-83
2022/05/12 00:20:15;;;;;;;2.97;2.78;;;15.70;99.90;;;;;;6038903;23;20022;-82
2022/05/12 00:22:43;;;;;;;4.60;3.50;;;16.00;99.90;;;;;;6074359;23;20011;-84
2022/05/12 00:25:17;;;;;;;8.07;3.83;;;16.40;99.90;;;;;;6068533;23;20433;-83
2022/05/12 00:27:45;;;;;;;7.65;3.28;;;16.60;99.90;;;;;;6073833;23;20015;-85
2022/05/12 00:30:14;;;;;;;3.83;3.00;;;16.70;99.90;;;;;;6074913;23;20022;-84
2022/05/12 00:32:45;;;;;;;4.95;4.47;;;16.90;99.90;;;;;;6070658;23;20026;-84
2022/05/12 00:35:15;;;;;;;4.65;3.20;;;17.00;99.90;;;;;;6040076;23;20015;-82
2022/05/12 00:37:43;;;;;;;3.30;3.00;;;17.20;99.90;;;;;;6062000;23;20030;-82
2022/05/12 00:40:12;;;;;;;5.60;2.80;;;17.10;99.90;;;;;;6072193;23;20019;-83
2022/05/12 00:43:01;;;;;;;4.80;3.55;;;17.00;99.90;;;;;;6075054;23;20021;-82
2022/05/12 00:45:38;;;;;;;3.83;3.17;;;16.90;99.90;;;;;;6067110;23;20022;-89
2022/05/12 00:48:06;;;;;;;10.35;2.47;;;16.70;99.90;;;;;;6070372;23;20031;-82
2022/05/12 00:50:39;;;;;;;5.88;3.50;;;16.60;99.90;;;;;;6063538;23;20022;-82
2022/05/12 00:53:10;;;;;;;3.10;2.90;;;16.50;99.90;;;;;;6038079;23;20022;-82
2022/05/12 00:55:41;;;;;;;4.15;3.75;;;16.30;99.90;;;;;;6097293;23;20011;-82
2022/05/12 00:58:13;;;;;;;4.43;3.60;;;16.40;99.90;;;;;;6063046;23;20355;-82
2022/05/12 01:00:41;;;;;;;9.35;3.05;;;16.40;99.90;;;;;;6063124;23;20375;-82
2022/05/12 01:03:25;;;;;;;4.40;3.63;;;16.50;99.90;;;;;;6074803;23;20022;-82
2022/05/12 01:05:54;;;;;;;3.90;3.50;;;16.60;99.90;;;;;;6065660;23;20478;-83
2022/05/12 01:08:22;;;;;;;5.45;3.47;;;16.50;99.90;;;;;;6093426;23;20027;-82
2022/05/12 01:10:58;;;;;;;3.97;3.67;;;16.40;99.90;;;;;;6097467;23;20022;-79
2022/05/12 01:13:31;;;;;;;4.20;3.50;;;16.40;99.90;;;;;;6067026;23;20023;-81
2022/05/12 01:16:02;;;;;;;2.78;2.58;;;16.90;99.90;;;;;;6071638;23;20019;-81
2022/05/12 01:18:33;;;;;;;2.92;2.28;;;17.20;99.90;;;;;;6039339;23;20037;-82
2022/05/12 01:21:00;;;;;;;8.68;3.17;;;17.80;99.90;;;;;;6090657;23;20030;-81
2022/05/12 01:23:36;;;;;;;2.45;2.25;;;18.10;99.90;;;;;;6073050;23;20029;-80
2022/05/12 01:26:10;;;;;;;5.00;2.55;;;18.60;99.90;;;;;;6065276;23;20034;-82
2022/05/12 01:28:49;;;;;;;2.67;2.30;;;18.70;99.90;;;;;;6069555;23;20047;-81
2022/05/12 01:31:19;;;;;;;2.95;2.75;;;19.00;99.90;;;;;;6074110;23;20327;-81
2022/05/12 01:33:47;;;;;;;3.17;2.67;;;18.80;99.90;;;;;;6064217;23;20037;-83
2022/05/12 01:36:15;;;;;;;2.40;2.25;;;18.50;99.90;;;;;;6039003;23;20023;-81
2022/05/12 01:38:42;;;;;;;3.92;3.22;;;18.30;99.90;;;;;;6098937;23;20015;-82
2022/05/12 01:41:10;;;;;;;2.70;2.50;;;18.20;99.90;;;;;;6070466;23;20035;-82
2022/05/12 01:43:39;;;;;;;12.15;3.15;;;18.10;99.90;;;;;;6065281;23;20335;-85
2022/05/12 01:46:07;;;;;;;3.00;2.60;;;17.90;99.90;;;;;;6063740;23;20034;-81
2022/05/12 01:48:35;;;;;;;2.80;2.55;;;17.70;99.90;;;;;;6070293;23;20031;-82
2022/05/12 01:51:03;;;;;;;2.40;2.30;;;17.90;99.90;;;;;;6063802;23;20038;-82
2022/05/12 01:53:31;;;;;;;8.82;3.78;;;17.90;99.90;;;;;;6068813;23;20526;-82
2022/05/12 01:56:00;;;;;;;4.05;3.33;;;17.70;99.90;;;;;;6075277;23;20014;-82
2022/05/12 01:58:27;;;;;;;4.63;3.08;;;17.60;99.90;;;;;;6099123;23;20478;-84
2022/05/12 02:00:58;;;;;;;6.38;3.17;;;17.50;99.90;;;;;;6071447;23;20023;-84
2022/05/12 02:03:26;;;;;;;2.97;2.78;;;17.30;99.90;;;;;;6076146;23;20019;-83
2022/05/12 02:05:54;;;;;;;3.55;2.78;;;17.10;99.90;;;;;;6089806;23;20029;-82
2022/05/12 02:08:21;;;;;;;2.45;2.25;;;17.10;99.90;;;;;;6073139;23;20031;-83
2022/05/12 02:10:50;;;;;;;3.50;3.28;;;17.00;99.90;;;;;;6076572;23;20061;-83
2022/05/12 02:13:21;;;;;;;6.40;4.05;;;17.00;99.90;;;;;;6065980;23;20455;-82
2022/05/12 02:15:49;;;;;;;4.85;3.42;;;17.00;99.90;;;;;;6075451;23;20034;-84
2022/05/12 02:18:20;;;;;;;3.10;2.70;;;16.90;99.90;;;;;;6075588;23;20022;-84
2022/05/12 02:20:49;;;;;;;2.75;2.55;;;17.10;99.90;;;;;;6070980;23;20084;-84
2022/05/12 02:23:17;;;;;;;6.55;2.90;;;17.00;99.90;;;;;;6074030;23;20026;-84
2022/05/12 02:25:46;;;;;;;13.75;2.78;;;17.10;99.90;;;;;;6071173;23;20022;-84
2022/05/12 02:28:14;;;;;;;4.32;2.53;;;17.10;99.90;;;;;;6063794;23;20034;-83
2022/05/12 02:30:42;;;;;;;4.07;3.67;;;17.10;99.90;;;;;;6075802;23;20015;-82
2022/05/12 02:33:10;;;;;;;4.05;3.58;;;17.10;99.90;;;;;;6092323;23;20030;-83
2022/05/12 02:35:39;;;;;;;2.30;2.10;;;17.10;99.90;;;;;;6076253;23;20018;-83
2022/05/12 02:38:08;;;;;;;5.72;3.80;;;17.20;99.90;;;;;;6063661;23;20485;-83
2022/05/12 02:40:36;;;;;;;3.80;2.30;;;17.20;99.90;;;;;;6071812;23;20359;-83
2022/05/12 02:43:23;;;;;;;2.90;2.70;;;17.10;99.90;;;;;;6064776;23;20027;-83
2022/05/12 02:46:04;;;;;;;4.57;2.88;;;17.10;99.90;;;;;;6066972;23;20030;-83
2022/05/12 02:48:43;;;;;;;2.72;2.40;;;17.10;99.90;;;;;;6094319;23;20584;-82
2022/05/12 02:51:12;;;;;;;3.05;2.65;;;17.00;99.90;;;;;;6073642;23;20041;-83
2022/05/12 02:53:40;;;;;;;5.50;3.05;;;16.90;99.90;;;;;;6063986;23;20027;-83
2022/05/12 02:56:09;;;;;;;9.23;3.47;;;16.80;99.90;;;;;;6072091;23;20331;-83
2022/05/12 02:58:37;;;;;;;3.40;3.10;;;16.70;99.90;;;;;;6098275;23;20021;-83
2022/05/12 03:01:08;;;;;;;5.97;3.55;;;16.60;99.90;;;;;;6091433;23;20034;-83
2022/05/12 03:03:37;;;;;;;6.47;3.88;;;16.40;99.90;;;;;;6064326;23;20027;-83
2022/05/12 03:06:05;;;;;;;4.25;3.08;;;16.40;99.90;;;;;;6050805;23;20030;-84
2022/05/12 03:08:34;;;;;;;5.93;4.68;;;16.30;99.90;;;;;;6071922;23;20030;-84
2022/05/12 03:11:25;;;;;;;8.25;4.78;;;16.20;99.90;;;;;;6064645;23;20022;-83
2022/05/12 03:14:50;;;;;;;3.42;3.13;;;16.10;99.90;;;;;;6070816;23;20042;-84
2022/05/12 03:18:04;;;;;;;3.88;2.88;;;16.10;99.90;;;;;;6024755;23;20022;-82
2022/05/12 03:21:31;;;;;;;2.90;2.70;;;16.30;99.90;;;;;;6063065;23;20042;-82
2022/05/12 03:24:16;;;;;;;3.38;3.05;;;17.10;99.90;;;;;;6019572;23;20023;-80
2022/05/12 03:27:04;;;;;;;2.83;2.63;;;17.60;99.90;;;;;;5985385;23;20030;-83
2022/05/12 03:30:30;;;;;;;2.58;2.38;;;18.20;99.90;;;;;;6033729;23;20023;-85
2022/05/12 03:33:59;;;;;;;3.38;2.88;;;18.30;99.90;;;;;;6035810;23;20467;-84
2022/05/12 03:37:01;;;;;;;3.05;2.75;;;18.60;99.90;;;;;;6038370;23;20035;-81
2022/05/12 03:40:18;;;;;;;2.90;2.67;;;18.80;99.90;;;;;;6041715;23;20019;-82
2022/05/12 03:46:12;;;;;;;4.75;2.72;;;19.00;99.90;;;;;;6032615;23;20349;-81
2022/05/12 03:48:41;;;;;;;2.63;2.40;;;18.80;99.90;;;;;;6038895;23;20027;-80
2022/05/12 03:51:09;;;;;;;2.63;2.42;;;18.80;99.90;;;;;;6052030;23;20019;-80
2022/05/12 03:53:37;;;;;;;3.40;2.90;;;18.80;99.90;;;;;;6061786;23;20031;-82
2022/05/12 03:56:07;;;;;;;3.20;2.85;;;18.90;99.90;;;;;;6042876;23;20025;-81
2022/05/12 03:58:35;;;;;;;7.47;3.83;;;18.90;99.90;;;;;;6096916;23;20339;-83
2022/05/12 04:01:04;;;;;;;3.92;3.35;;;18.70;99.90;;;;;;6062883;23;20023;-80
2022/05/12 04:03:32;;;;;;;2.60;2.35;;;18.50;99.90;;;;;;6098018;23;20022;-81
2022/05/12 04:06:06;;;;;;;3.20;3.00;;;18.70;99.90;;;;;;6064592;23;20023;-83
2022/05/12 04:08:35;;;;;;;8.60;3.53;;;18.50;99.90;;;;;;6092211;23;20031;-80
2022/05/12 04:11:07;;;;;;;4.50;3.42;;;18.50;99.90;;;;;;6097045;23;20589;-80
2022/05/12 04:13:35;;;;;;;2.38;2.28;;;18.50;99.90;;;;;;6066654;23;20019;-80
2022/05/12 04:16:03;;;;;;;3.95;3.28;;;18.40;99.90;;;;;;6073138;23;20018;-80
2022/05/12 04:18:31;;;;;;;7.07;3.25;;;18.20;99.90;;;;;;6062189;23;20025;-78
2022/05/12 04:20:59;;;;;;;4.00;2.75;;;18.20;99.90;;;;;;6090066;23;20434;-82
2022/05/12 04:23:30;;;;;;;3.17;2.75;;;18.30;99.90;;;;;;6063390;23;20026;-81
2022/05/12 04:26:02;;;;;;;3.70;3.40;;;18.20;99.90;;;;;;6065386;23;20026;-80
2022/05/12 04:28:30;;;;;;;2.92;2.72;;;18.10;99.90;;;;;;6062647;23;20514;-82
2022/05/12 04:30:58;;;;;;;3.03;2.70;;;18.00;99.90;;;;;;6074353;23;20023;-80
2022/05/12 04:36:13;;;;;;;3.05;2.83;;;18.00;99.90;;;;;;6071175;23;20030;-81
2022/05/12 04:38:41;;;;;;;3.78;3.47;;;17.90;99.90;;;;;;6096858;23;20026;-80
2022/05/12 04:41:09;;;;;;;8.02;2.17;;;17.90;99.90;;;;;;6068539;23;20033;-82
2022/05/12 04:43:37;;;;;;;3.20;2.97;;;17.90;99.90;;;;;;6063032;23;20025;-80
2022/05/12 04:46:06;;;;;;;4.70;3.35;;;17.90;99.90;;;;;;6060011;23;20030;-79
2022/05/12 04:48:38;;;;;;;3.72;3.33;;;17.90;99.90;;;;;;6090696;23;20034;-80
2022/05/12 04:51:06;;;;;;;5.82;3.63;;;17.90;99.90;;;;;;6060631;23;20026;-80
2022/05/12 04:53:34;;;;;;;2.88;2.67;;;17.90;99.90;;;;;;6062897;23;20672;-81
2022/05/12 04:56:04;;;;;;;3.97;3.10;;;17.90;99.90;;;;;;6071938;23;20019;-81
2022/05/12 04:58:32;;;;;;;3.17;2.97;;;17.90;99.90;;;;;;6063458;23;20019;-80
2022/05/12 05:01:00;;;;;;;2.67;2.50;;;18.10;99.90;;;;;;6038866;23;20339;-81
2022/05/12 05:03:28;;;;;;;4.10;2.80;;;18.20;99.90;;;;;;6073257;23;20015;-81
2022/05/12 05:05:56;;;;;;;17.23;3.03;;;18.40;99.90;;;;;;6064954;23;20034;-82
2022/05/12 05:08:25;;;;;;;17.52;3.00;;;18.70;99.90;;;;;;6014989;23;20023;-80
2022/05/12 05:10:55;;;;;;;5.55;3.35;;;18.90;99.90;;;;;;6039717;23;20015;-82
2022/05/12 05:13:23;;;;;;;5.15;2.65;;;19.20;99.90;;;;;;6038769;23;20034;-80
2022/05/12 05:15:53;;;;;;;4.18;3.33;;;19.40;99.90;;;;;;6096152;23;20046;-80
2022/05/12 05:18:22;;;;;;;3.38;3.17;;;19.50;99.90;;;;;;6062867;23;20034;-82
2022/05/12 05:20:50;;;;;;;7.72;3.10;;;19.80;99.90;;;;;;6062613;23;20023;-82
2022/05/12 05:23:21;;;;;;;3.13;2.83;;;19.90;99.90;;;;;;6062620;23;20015;-82
2022/05/12 05:25:51;;;;;;;5.32;2.78;;;20.00;99.90;;;;;;6039423;23;20026;-84
2022/05/12 05:28:20;;;;;;;2.95;2.75;;;20.10;99.90;;;;;;6074908;23;20029;-80
2022/05/12 05:30:51;;;;;;;4.68;3.25;;;20.00;99.90;;;;;;6063560;23;20339;-80
2022/05/12 05:33:20;;;;;;;3.35;2.28;;;19.90;99.90;;;;;;6041384;23;20347;-83
2022/05/12 05:35:50;;;;;;;21.30;2.72;;;19.80;99.90;;;;;;6038972;23;20023;-81
2022/05/12 05:38:23;;;;;;;5.18;2.85;;;19.80;99.90;;;;;;6038691;23;20019;-81
2022/05/12 05:40:51;;;;;;;4.10;2.50;;;20.00;99.90;;;;;;6025500;23;20019;-80
2022/05/12 05:43:26;;;;;;;4.05;3.75;;;20.00;99.90;;;;;;6073475;23;20466;-81
2022/05/12 05:46:58;;;;;;;3.05;2.85;;;20.00;99.90;;;;;;6041557;23;20035;-80
2022/05/12 05:49:44;;;;;;;2.85;2.63;;;20.00;99.90;;;;;;6064084;23;20027;-79
2022/05/12 05:55:21;;;;;;;6.82;3.67;;;19.70;99.90;;;;;;6039218;23;20023;-79
2022/05/12 05:57:49;;;;;;;3.17;2.97;;;19.70;99.90;;;;;;6063731;23;20034;-81
2022/05/12 06:00:18;;;;;;;4.03;3.25;;;19.60;99.90;;;;;;6039059;23;20034;-81
2022/05/12 06:03:14;;;;;;;3.58;3.15;;;19.70;99.90;;;;;;6051932;23;20033;-80
2022/05/12 06:06:59;;;;;;;7.43;3.65;;;19.70;99.90;;;;;;6046801;23;20031;-81
2022/05/12 06:10:22;;;;;;;3.90;3.63;;;19.80;99.90;;;;;;5974971;24;20020;-81
2022/05/12 06:13:14;;;;;;;3.40;3.15;;;19.60;99.90;;;;;;5928928;24;20021;-80
2022/05/12 06:16:39;;;;;;;18.23;3.35;;;19.50;99.90;;;;;;5970513;24;20068;-81
2022/05/12 06:19:30;;;;;;;4.05;3.15;;;19.70;99.90;;;;;;5951695;24;20023;-80
2022/05/12 06:22:18;;;;;;;4.22;3.33;;;19.90;99.90;;;;;;5965281;24;20028;-82
2022/05/12 06:30:28;;;;;;;;;;;;;;;;;;;;;
2022/05/12 06:34:03;;;;;;;6.80;3.05;;;20.10;99.90;;;;;;6070368;23;20021;-82
2022/05/12 06:37:52;;;;;;;4.20;3.08;;;20.20;99.90;;;;;;6042198;23;20503;-82
2022/05/12 06:42:09;;;;;;;5.20;2.92;;;20.00;99.90;;;;;;5983264;23;20034;-82
2022/05/12 06:45:47;;;;;;;7.15;3.25;;;19.90;99.90;;;;;;6036530;23;20227;-83
2022/05/12 06:48:17;;;;;;;2.75;2.30;;;19.90;99.90;;;;;;6006799;23;20024;-80
2022/05/12 06:50:49;;;;;;;3.45;2.28;;;19.90;99.90;;;;;;6003539;23;20020;-83
2022/05/12 06:53:19;;;;;;;5.20;2.72;;;19.90;99.90;;;;;;6006313;23;20097;-82
2022/05/12 06:55:47;;;;;;;10.80;3.15;;;19.90;99.90;;;;;;5980394;23;20019;-82
2022/05/12 06:58:24;;;;;;;8.10;3.10;;;19.90;99.90;;;;;;5977528;23;20027;-83
2022/05/12 07:00:54;;;;;;;5.65;3.15;;;19.90;99.90;;;;;;6028691;23;20039;-82
2022/05/12 07:03:24;;;;;;;7.03;2.72;;;19.90;99.90;;;;;;5986974;23;20070;-85
2022/05/12 07:06:02;;;;;;;3.17;2.38;;;20.00;99.90;;;;;;6001373;23;20243;-83
2022/05/12 07:08:48;;;;;;;;;;;19.90;99.90;;;;;;6000233;23;20043;-81
2022/05/12 07:11:17;;;;;;;8.30;2.83;;;19.90;99.90;;;;;;6008736;23;19944;-85
2022/05/12 07:14:00;;;;;;;5.47;2.80;;;20.10;99.90;;;;;;6000258;23;20031;-85
2022/05/12 07:16:45;;;;;;;4.43;3.00;;;20.30;99.90;;;;;;6013075;23;20168;-85
2022/05/12 07:19:21;;;;;;;3.17;2.53;;;20.40;99.90;;;;;;6035687;23;20019;-82
2022/05/12 07:27:25;;;;;;;3.10;2.60;;;20.50;99.90;;;;;;6060254;23;20015;-85
2022/05/12 07:29:57;;;;;;;5.13;2.72;;;20.50;99.90;;;;;;6059597;23;20023;-84
2022/05/12 07:32:33;;;;;;;6.47;2.75;;;20.70;99.90;;;;;;6060233;23;20037;-82
2022/05/12 07:52:03;;;;;;;2.90;2.47;;;20.20;99.90;;;;;;6093987;23;20030;-90
2022/05/12 07:54:34;;;;;;;1.92;1.67;;;20.30;99.90;;;;;;6059762;23;20026;-89
2022/05/12 07:57:23;;;;;;;15.80;2.88;;;20.70;99.90;;;;;;6078495;23;20030;-88
2022/05/12 08:00:13;;;;;;;10.20;3.00;;;21.20;99.90;;;;;;6099941;23;20669;-89
2022/05/12 08:03:03;;;;;;;2.40;2.20;;;21.70;99.90;;;;;;6101551;23;20018;-90
2022/05/12 08:05:51;;;;;;;20.45;3.97;;;21.70;99.90;;;;;;6077295;23;20025;-87
2022/05/12 08:08:59;;;;;;;5.78;2.67;;;21.70;99.90;;;;;;6148145;23;20025;-89
2022/05/12 08:12:02;;;;;;;5.35;3.15;;;21.50;99.90;;;;;;6079923;23;20060;-90
2022/05/12 08:15:09;;;;;;;4.90;2.47;;;21.30;99.90;;;;;;6137537;23;20033;-88
2022/05/12 08:18:08;;;;;;;2.92;2.60;;;21.10;99.90;;;;;;6100127;23;20029;-88
2022/05/12 08:21:20;;;;;;;4.47;3.00;;;21.30;99.90;;;;;;6085783;23;20365;-88
2022/05/12 08:24:07;;;;;;;3.17;2.22;;;21.50;99.90;;;;;;6079381;23;20587;-90
2022/05/12 08:26:50;;;;;;;5.05;2.17;;;21.70;99.90;;;;;;6124564;23;20044;-89
2022/05/12 08:29:30;;;;;;;14.68;3.72;;;22.10;99.90;;;;;;6145820;23;20652;-87
2022/05/12 08:32:08;;;;;;;5.47;3.45;;;22.50;99.90;;;;;;6146286;23;20024;-88
2022/05/12 08:34:44;;;;;;;4.90;3.33;;;22.80;99.90;;;;;;6078634;23;20013;-88
2022/05/12 08:37:23;;;;;;;3.90;2.75;;;23.00;99.90;;;;;;6067562;23;20026;-88
2022/05/12 08:40:16;;;;;;;5.72;2.90;;;23.10;99.90;;;;;;6066388;23;20037;-88
2022/05/12 08:43:11;;;;;;;4.43;3.15;;;23.20;99.90;;;;;;6042845;23;20026;-88
2022/05/12 08:45:59;;;;;;;4.68;2.63;;;23.10;99.90;;;;;;6033325;23;20026;-89
2022/05/12 08:48:43;;;;;;;11.52;3.95;;;23.20;99.90;;;;;;6063022;23;20018;-87
2022/05/12 08:51:19;;;;;;;4.95;2.70;;;23.10;99.90;;;;;;6035016;23;20048;-89
2022/05/12 08:54:03;;;;;;;5.95;3.95;;;23.40;99.90;;;;;;6059471;23;20019;-90
2022/05/12 08:56:37;;;;;;;2.97;2.78;;;23.10;99.90;;;;;;6062859;23;20018;-90
2022/05/12 08:59:10;;;;;;;5.72;2.97;;;22.50;99.90;;;;;;6098833;23;20029;-87
2022/05/12 09:01:51;;;;;;;3.00;2.80;;;22.40;99.90;;;;;;6064668;23;20369;-87
2022/05/12 09:04:57;;;;;;;2.22;2.10;;;22.20;99.90;;;;;;6063426;23;20023;-90
2022/05/12 09:08:27;;;;;;;2.53;2.33;;;22.10;99.90;;;;;;6062143;23;20015;-87
2022/05/12 09:11:59;;;;;;;3.53;3.22;;;22.30;99.90;;;;;;6051608;23;20225;-87
2022/05/12 09:15:42;;;;;;;;;;;;;;;;;;;;;
2022/05/12 09:19:31;;;;;;;;;;;;;;;;;;;;;
2022/05/12 09:31:47;;;;;;;4.35;3.05;;;22.50;99.90;;;;;;5859139;24;20033;-88
2022/05/12 09:34:40;;;;;;;15.02;3.05;;;22.80;99.90;;;;;;5876360;23;20028;-89
2022/05/12 09:37:56;;;;;;;6.63;3.17;;;23.20;99.90;;;;;;5912757;23;20495;-88
2022/05/12 09:41:46;;;;;;;4.20;3.40;;;23.30;99.90;;;;;;5893359;24;20029;-87
2022/05/12 09:44:41;;;;;;;5.93;3.00;;;23.50;99.90;;;;;;5894472;24;20033;-85
2022/05/12 09:47:35;;;;;;;7.38;3.47;;;23.20;99.90;;;;;;5913217;24;20029;-89
2022/05/12 09:54:28;;;;;;;4.35;2.97;;;22.20;99.90;;;;;;5904205;24;20084;-87
2022/05/12 09:57:10;;;;;;;4.13;3.17;;;22.10;99.90;;;;;;5894858;24;20709;-89
2022/05/12 09:59:42;;;;;;;7.25;4.03;;;22.10;99.90;;;;;;6018143;23;20025;-86
2022/05/12 10:08:28;;;;;;;3.55;3.25;;;22.20;99.90;;;;;;6127362;23;20021;-89
2022/05/12 10:11:08;;;;;;;6.68;3.55;;;22.40;99.90;;;;;;6071865;23;20021;-94
2022/05/12 10:13:50;;;;;;;8.73;3.92;;;22.60;99.90;;;;;;6071863;23;20041;-87
2022/05/12 10:16:26;;;;;;;3.73;3.30;;;22.80;99.90;;;;;;6095575;23;20018;-90
2022/05/12 10:19:22;;;;;;;3.47;3.17;;;22.90;99.90;;;;;;6121493;23;20025;-92
2022/05/12 10:22:37;;;;;;;4.00;3.10;;;22.60;99.90;;;;;;6083566;23;20026;-89
2022/05/12 10:25:55;;;;;;;11.73;4.53;;;22.50;99.90;;;;;;6078050;23;20032;-90
2022/05/12 10:29:10;;;;;;;5.03;2.88;;;22.40;99.90;;;;;;6072787;23;20037;-90
2022/05/12 10:32:18;;;;;;;4.38;3.17;;;22.20;99.90;;;;;;6034349;23;20468;-92
2022/05/12 10:35:28;;;;;;;7.18;3.85;;;22.40;99.90;;;;;;6104330;23;20017;-93
2022/05/12 10:38:22;;;;;;;6.13;3.92;;;22.30;99.90;;;;;;6112659;23;20026;-89
2022/05/12 10:41:33;;;;;;;4.20;3.42;;;22.30;99.90;;;;;;6121433;23;20476;-87
2022/05/12 10:44:33;;;;;;;4.05;3.65;;;22.30;99.90;;;;;;6129127;23;20064;-86
2022/05/12 10:47:25;;;;;;;6.35;3.47;;;22.10;99.90;;;;;;6071511;23;20022;-89
2022/05/12 10:50:52;;;;;;;4.28;3.33;;;22.20;99.90;;;;;;6121475;23;20536;-88
2022/05/12 10:54:29;;;;;;;11.55;3.53;;;22.30;99.90;;;;;;6072973;23;20026;-90
2022/05/12 10:57:59;;;;;;;3.83;3.53;;;22.50;99.90;;;;;;6097525;23;20026;-81
2022/05/12 11:01:17;;;;;;;4.22;3.83;;;22.50;99.90;;;;;;6124055;23;20033;-83
2022/05/12 11:04:49;;;;;;;4.15;3.80;;;22.40;99.90;;;;;;6093390;23;20032;-83
2022/05/12 11:07:48;;;;;;;16.20;3.17;;;22.90;99.90;;;;;;6106934;23;20018;-83
2022/05/12 11:10:51;;;;;;;5.32;3.15;;;23.20;99.90;;;;;;6088463;23;20358;-82
2022/05/12 11:13:55;;;;;;;3.72;3.42;;;23.40;99.90;;;;;;6122345;23;20026;-81
2022/05/12 11:17:12;;;;;;;3.55;3.28;;;23.10;99.90;;;;;;6099768;23;20037;-89
2022/05/12 11:20:32;;;;;;;3.97;3.10;;;23.30;99.90;;;;;;6090949;23;20037;-86
2022/05/12 11:23:36;;;;;;;6.88;3.80;;;23.30;99.90;;;;;;6117748;23;20533;-83
2022/05/12 11:26:14;;;;;;;;;;;23.20;99.90;;;;;;6119858;23;20025;-83
2022/05/12 11:32:28;;;;;;;3.88;3.50;;;23.30;99.70;;;;;;6125990;23;20022;-80
2022/05/12 11:35:12;;;;;;;4.57;3.90;;;23.50;99.90;;;;;;6129988;23;20017;-80
2022/05/12 11:37:41;;;;;;;6.22;3.55;;;23.60;99.90;;;;;;6121375;23;20041;-83
2022/05/12 11:40:12;;;;;;;5.60;3.05;;;23.80;99.70;;;;;;6126645;23;20022;-82
2022/05/12 11:45:48;;;;;;;4.93;3.60;;;24.00;99.40;;;;;;6117804;23;20083;-86
2022/05/12 11:48:54;;;;;;;8.57;3.25;;;24.00;97.40;;;;;;6093047;23;20025;-81
2022/05/12 11:51:23;;;;;;;5.47;3.78;;;23.90;97.00;;;;;;6137853;23;20034;-85
2022/05/12 11:54:05;;;;;;;4.30;3.38;;;23.80;98.00;;;;;;6147595;23;20461;-84
2022/05/12 11:56:51;;;;;;;4.65;3.53;;;23.90;96.90;;;;;;6154281;23;20029;-85
2022/05/12 11:59:30;;;;;;;5.85;4.13;;;23.90;95.10;;;;;;6157450;23;20021;-82
2022/05/12 12:02:04;;;;;;;7.53;3.38;;;23.80;97.60;;;;;;6122401;23;20030;-79
2022/05/12 12:04:51;;;;;;;4.95;3.58;;;24.00;97.50;;;;;;6148320;23;20033;-85
2022/05/12 12:07:31;;;;;;;6.68;3.88;;;24.10;99.60;;;;;;6158503;23;20043;-79
2022/05/12 12:10:09;;;;;;;17.23;3.35;;;24.00;96.80;;;;;;6147858;23;20025;-80
2022/05/12 12:12:40;;;;;;;3.75;3.38;;;24.30;97.30;;;;;;6154178;23;20026;-75
2022/05/12 12:15:11;;;;;;;7.60;3.95;;;24.30;94.70;;;;;;6158332;23;20020;-78
2022/05/12 12:17:41;;;;;;;4.35;3.95;;;24.40;98.30;;;;;;6149187;23;20022;-77
2022/05/12 12:20:31;;;;;;;6.60;3.13;;;24.60;96.50;;;;;;6155597;23;20017;-78
2022/05/12 12:23:23;;;;;;;3.47;3.17;;;24.40;98.10;;;;;;6124497;23;20025;-77
2022/05/12 12:26:36;;;;;;;3.72;3.30;;;24.40;95.80;;;;;;6148759;23;20025;-77
2022/05/12 12:29:10;;;;;;;4.10;3.35;;;24.50;96.40;;;;;;6151628;23;20029;-78
2022/05/12 12:31:44;;;;;;;6.13;3.50;;;24.40;97.00;;;;;;6158062;23;20024;-79
2022/05/12 12:34:21;;;;;;;8.73;2.78;;;24.30;97.40;;;;;;6120916;23;20029;-78
2022/05/12 12:36:50;;;;;;;6.75;3.63;;;24.40;97.40;;;;;;6149914;23;20030;-77
2022/05/12 12:39:41;;;;;;;12.20;3.72;;;24.40;96.10;;;;;;6158128;23;20543;-77
2022/05/12 12:42:34;;;;;;;3.83;2.92;;;24.50;95.40;;;;;;6146314;23;20028;-78
2022/05/12 12:45:16;;;;;;;3.72;3.42;;;24.30;95.70;;;;;;6151246;23;20041;-78
2022/05/12 12:47:49;;;;;;;3.13;2.65;;;24.30;96.70;;;;;;6158094;23;20022;-77
2022/05/12 12:50:26;;;;;;;10.40;4.55;;;24.40;98.00;;;;;;6146907;23;20361;-76
2022/05/12 12:52:56;;;;;;;3.55;3.35;;;24.70;94.40;;;;;;6152147;23;20051;-77
2022/05/12 12:58:49;;;;;;;4.15;3.55;;;24.70;93.60;;;;;;6130303;23;20029;-79
2022/05/12 13:01:23;;;;;;;5.47;3.03;;;24.50;92.30;;;;;;6150689;23;20028;-77
2022/05/12 13:03:59;;;;;;;8.13;2.97;;;24.40;96.10;;;;;;6147859;23;20024;-88
2022/05/12 13:06:37;;;;;;;4.75;3.60;;;24.40;94.60;;;;;;6122896;23;20028;-86
2022/05/12 13:09:12;;;;;;;3.30;2.67;;;24.50;95.30;;;;;;6127763;23;20472;-86
2022/05/12 13:11:42;;;;;;;3.47;3.28;;;24.60;94.20;;;;;;6158066;23;20014;-88
2022/05/12 13:14:14;;;;;;;7.43;3.63;;;24.60;93.40;;;;;;6147874;23;20030;-89
2022/05/12 13:16:48;;;;;;;4.43;3.30;;;24.70;95.20;;;;;;6153558;23;20034;-89
2022/05/12 13:19:34;;;;;;;8.95;4.07;;;24.90;95.50;;;;;;6158472;23;20024;-84
2022/05/12 13:22:02;;;;;;;4.10;3.70;;;24.90;96.40;;;;;;6147257;23;20026;-88
2022/05/12 13:24:32;;;;;;;3.47;3.17;;;24.60;95.00;;;;;;6154801;23;20811;-88
2022/05/12 13:30:56;;;;;;;2.85;2.67;;;24.80;96.30;;;;;;6097732;23;20040;-91
2022/05/12 13:33:32;;;;;;;10.25;3.35;;;25.00;92.80;;;;;;6109674;23;20030;-82
2022/05/12 13:36:19;;;;;;;5.15;4.03;;;25.10;93.90;;;;;;6158450;23;20345;-77
2022/05/12 13:38:46;;;;;;;3.90;3.47;;;24.80;94.40;;;;;;6160370;23;20013;-84
2022/05/12 13:41:38;;;;;;;4.03;3.03;;;24.30;92.60;;;;;;6153707;23;20044;-77
2022/05/12 13:44:24;;;;;;;6.75;3.28;;;24.30;95.00;;;;;;6158888;23;20029;-78
2022/05/12 13:46:56;;;;;;;8.27;3.95;;;24.40;93.40;;;;;;6160494;23;20013;-77
2022/05/12 13:49:39;;;;;;;9.23;3.95;;;24.30;92.60;;;;;;6152855;23;20488;-76
2022/05/12 13:52:15;;;;;;;4.57;3.85;;;24.40;92.90;;;;;;6150922;23;20342;-77
2022/05/12 13:54:55;;;;;;;5.35;3.78;;;24.50;94.00;;;;;;6160470;23;20024;-78
2022/05/12 13:57:42;;;;;;;4.90;3.60;;;24.60;93.50;;;;;;6126835;23;20021;-77
2022/05/12 14:00:15;;;;;;;6.68;4.30;;;24.50;92.40;;;;;;6157268;23;20021;-77
2022/05/12 14:02:50;;;;;;;11.90;3.97;;;24.50;91.50;;;;;;6160251;23;20441;-78
2022/05/12 14:05:27;;;;;;;4.63;3.13;;;24.60;94.40;;;;;;6153152;23;20034;-77
2022/05/12 14:08:07;;;;;;;7.30;3.90;;;24.80;93.40;;;;;;6158146;23;20025;-78
2022/05/12 14:10:44;;;;;;;6.15;3.03;;;25.00;93.20;;;;;;6160043;23;20021;-79
2022/05/12 14:19:14;;;;;;;5.47;3.80;;;24.80;94.10;;;;;;6150186;23;20773;-79
2022/05/12 14:21:55;;;;;;;4.55;4.15;;;25.00;93.20;;;;;;6151570;23;20476;-80
2022/05/12 14:24:26;;;;;;;5.68;3.88;;;24.90;91.90;;;;;;6157559;23;20025;-78
2022/05/12 14:26:55;;;;;;;7.25;3.90;;;25.00;90.90;;;;;;6160632;23;20018;-81
2022/05/12 14:29:30;;;;;;;4.35;3.90;;;25.00;92.80;;;;;;6152872;23;20025;-77
2022/05/12 14:31:59;;;;;;;8.02;3.97;;;24.90;91.60;;;;;;6132807;23;20014;-80
2022/05/12 14:34:27;;;;;;;4.18;3.80;;;24.80;91.70;;;;;;6157756;23;20013;-77
2022/05/12 14:37:00;;;;;;;6.78;3.80;;;24.80;91.30;;;;;;6127850;23;20473;-78
2022/05/12 14:39:30;;;;;;;3.42;3.13;;;24.80;92.80;;;;;;6159931;23;20018;-78
2022/05/12 14:41:58;;;;;;;3.30;3.00;;;25.00;91.60;;;;;;6149586;23;20057;-78
2022/05/12 14:44:55;;;;;;;4.88;3.13;;;25.00;90.50;;;;;;6152314;23;20026;-79
2022/05/12 14:47:28;;;;;;;4.70;3.17;;;24.70;88.40;;;;;;6158519;23;20010;-79
2022/05/12 14:49:58;;;;;;;4.97;3.13;;;24.80;90.70;;;;;;6147750;23;20029;-77
2022/05/12 14:52:27;;;;;;;3.15;2.90;;;24.90;88.30;;;;;;6144573;23;20017;-79
2022/05/12 14:54:56;;;;;;;4.07;3.15;;;25.10;91.10;;;;;;6157980;23;20455;-80
2022/05/12 14:57:25;;;;;;;5.50;3.60;;;25.10;88.60;;;;;;6150708;23;20440;-79
2022/05/12 14:59:53;;;;;;;4.03;3.65;;;25.00;88.30;;;;;;6156878;23;20028;-78
2022/05/12 15:02:31;;;;;;;9.82;3.22;;;25.10;91.20;;;;;;6158233;23;20653;-78
2022/05/12 15:05:00;;;;;;;3.55;3.25;;;25.20;90.00;;;;;;6126752;23;20040;-80
2022/05/12 15:07:29;;;;;;;3.92;3.50;;;25.20;90.60;;;;;;6158000;23;20433;-78
2022/05/12 15:09:57;;;;;;;3.70;3.42;;;25.30;90.20;;;;;;6148184;23;20468;-82
2022/05/12 15:12:25;;;;;;;8.00;4.05;;;25.20;87.90;;;;;;6155854;23;20021;-81
2022/05/12 15:14:52;;;;;;;5.70;3.13;;;25.10;91.80;;;;;;6158981;23;20017;-78
2022/05/12 15:17:27;;;;;;;5.05;3.20;;;25.10;87.80;;;;;;6151259;23;20033;-84
2022/05/12 15:19:55;;;;;;;4.15;3.75;;;25.20;90.20;;;;;;6156754;23;20456;-84